createdAt,value
2023-03-18T00:01:41.984Z,-0.45
2023-03-18T00:04:11.636Z,-0.42
2023-03-18T00:06:41.267Z,-0.64
2023-03-18T00:09:12.581Z,-0.61
2023-03-18T00:11:42.225Z,-0.68
2023-03-18T00:14:11.866Z,-0.49
2023-03-18T00:16:41.810Z,-0.34
2023-03-18T00:19:11.644Z,-0.47
2023-03-18T00:21:41.292Z,-0.71
2023-03-18T00:24:12.451Z,-0.70
2023-03-18T00:26:42.701Z,-0.75
2023-03-18T00:29:12.218Z,-1.05
2023-03-18T00:31:41.884Z,-0.68
2023-03-18T00:34:12.524Z,-0.67
2023-03-18T00:36:42.352Z,-0.70
2023-03-18T00:39:13.401Z,-0.97
2023-03-18T00:41:43.010Z,-0.89
2023-03-18T00:44:14.927Z,-0.98
2023-03-18T00:46:44.511Z,-0.71
2023-03-18T00:49:14.436Z,-0.69
2023-03-18T00:51:44.164Z,-0.78
2023-03-18T00:54:18.757Z,-1.00
2023-03-18T00:56:48.445Z,-0.64
2023-03-18T00:59:18.511Z,-0.63
2023-03-18T01:01:48.643Z,-0.59
2023-03-18T01:04:18.860Z,-0.55
2023-03-18T01:06:48.413Z,-0.51
2023-03-18T01:09:17.968Z,-0.99
2023-03-18T01:11:47.793Z,-0.84
2023-03-18T01:14:15.848Z,-0.68
2023-03-18T01:16:44.995Z,-0.88
2023-03-18T01:19:16.152Z,-0.77
2023-03-18T01:21:46.386Z,-0.74
2023-03-18T01:24:15.915Z,-0.93
2023-03-18T01:26:45.580Z,-1.22
2023-03-18T01:29:15.452Z,-1.24
2023-03-18T01:31:45.738Z,-1.06
2023-03-18T01:34:16.613Z,-1.02
2023-03-18T01:36:46.723Z,-1.09
2023-03-18T01:39:17.703Z,-1.03
2023-03-18T01:41:48.997Z,-0.98
2023-03-18T01:44:23.640Z,-1.06
2023-03-18T01:46:54.686Z,-0.92
2023-03-18T01:49:42.988Z,-0.88
2023-03-18T01:52:27.314Z,-0.92
2023-03-18T01:55:04.629Z,-0.93
2023-03-18T01:57:35.943Z,-0.71
2023-03-18T02:00:08.044Z,-0.85
2023-03-18T02:02:43.766Z,-0.99
2023-03-18T02:05:19.339Z,-0.82
2023-03-18T02:07:49.566Z,-1.04
2023-03-18T02:10:28.231Z,-0.96
2023-03-18T02:13:08.072Z,-0.87
2023-03-18T02:16:07.083Z,-0.99
2023-03-18T02:18:45.887Z,-1.31
2023-03-18T02:21:46.291Z,-1.07
2023-03-18T02:24:57.930Z,-1.06
2023-03-18T02:27:35.520Z,-1.40
2023-03-18T02:30:24.187Z,-1.32
2023-03-18T02:32:56.202Z,-1.35
2023-03-18T02:35:28.525Z,-1.30
2023-03-18T02:37:56.358Z,-1.22
2023-03-18T02:40:34.828Z,-1.13
2023-03-18T02:43:42.727Z,-1.22
2023-03-18T02:46:47.741Z,-1.28
2023-03-18T02:49:20.268Z,-1.03
2023-03-18T02:51:50.516Z,-1.08
2023-03-18T02:54:29.390Z,-1.19
2023-03-18T02:56:59.076Z,-0.70
2023-03-18T02:59:28.786Z,-0.70
2023-03-18T03:01:58.360Z,-0.92
2023-03-18T03:04:28.810Z,-0.73
2023-03-18T03:06:58.298Z,-0.81
2023-03-18T03:09:26.252Z,-0.87
2023-03-18T03:11:55.084Z,-0.85
2023-03-18T03:14:22.949Z,-1.12
2023-03-18T03:16:52.025Z,-1.08
2023-03-18T03:19:21.588Z,-1.03
2023-03-18T03:21:49.435Z,-1.07
2023-03-18T03:24:17.284Z,-1.26
2023-03-18T03:26:45.170Z,-0.83
2023-03-18T03:29:13.052Z,-1.15
2023-03-18T03:31:42.575Z,-1.04
2023-03-18T03:34:10.890Z,-1.21
2023-03-18T03:36:40.123Z,-1.09
2023-03-18T03:39:08.029Z,-1.22
2023-03-18T03:41:35.940Z,-1.42
2023-03-18T03:44:03.795Z,-1.70
2023-03-18T03:46:32.965Z,-1.65
2023-03-18T03:49:00.823Z,-1.69
2023-03-18T03:51:29.431Z,-1.61
2023-03-18T03:53:58.227Z,-1.43
2023-03-18T03:56:26.101Z,-1.42
2023-03-18T03:58:53.852Z,-1.36
2023-03-18T04:01:21.705Z,-1.42
2023-03-18T04:03:49.803Z,-1.49
2023-03-18T04:06:18.757Z,-1.13
2023-03-18T04:08:46.562Z,-1.04
2023-03-18T04:11:15.525Z,-0.88
2023-03-18T04:13:43.502Z,-0.92
2023-03-18T04:16:12.543Z,-0.72
2023-03-18T04:18:41.590Z,-0.76
2023-03-18T04:21:10.551Z,-0.84
2023-03-18T04:23:39.396Z,-0.75
2023-03-18T04:26:07.336Z,-0.81
2023-03-18T04:28:35.402Z,-0.62
2023-03-18T04:31:04.322Z,-0.54
2023-03-18T04:33:34.396Z,-0.65
2023-03-18T04:36:02.323Z,-0.64
2023-03-18T04:38:31.149Z,-0.64
2023-03-18T04:41:00.743Z,-0.60
2023-03-18T04:43:28.837Z,-0.52
2023-03-18T04:45:56.741Z,-0.53
2023-03-18T04:48:25.582Z,-0.41
2023-03-18T04:50:55.127Z,-0.47
2023-03-18T04:53:24.654Z,-0.43
2023-03-18T04:55:53.460Z,-0.40
2023-03-18T04:58:21.416Z,-0.34
2023-03-18T05:00:49.413Z,-0.23
2023-03-18T05:03:17.256Z,-0.17
2023-03-18T05:05:46.084Z,-0.40
2023-03-18T05:08:14.561Z,-0.04
2023-03-18T05:10:44.070Z,-0.04
2023-03-18T05:13:13.557Z,0.03
2023-03-18T05:15:42.488Z,0.12
2023-03-18T05:18:12.851Z,0.24
2023-03-18T05:20:41.904Z,0.31
2023-03-18T05:23:10.653Z,0.42
2023-03-18T05:25:39.392Z,0.39
2023-03-18T05:28:08.002Z,0.40
2023-03-18T05:30:40.510Z,0.64
2023-03-18T05:33:08.304Z,0.59
2023-03-18T05:35:39.425Z,1.00
2023-03-18T05:38:08.204Z,1.72
2023-03-18T05:40:37.586Z,2.19
2023-03-18T05:43:07.408Z,2.23
2023-03-18T05:45:39.885Z,2.07
2023-03-18T05:48:10.911Z,1.85
2023-03-18T05:50:43.755Z,2.03
2023-03-18T05:53:13.705Z,2.60
2023-03-18T05:55:44.042Z,2.90
2023-03-18T05:58:12.755Z,3.15
2023-03-18T06:00:41.650Z,3.91
2023-03-18T06:03:09.461Z,5.73
2023-03-18T06:05:38.216Z,6.05
2023-03-18T06:08:06.816Z,8.92
2023-03-18T06:10:35.758Z,10.31
2023-03-18T06:13:06.008Z,10.53
2023-03-18T06:15:35.436Z,12.91
2023-03-18T06:18:05.261Z,14.85
2023-03-18T06:20:35.572Z,13.85
2023-03-18T06:23:05.436Z,12.15
2023-03-18T06:25:34.515Z,10.62
2023-03-18T06:28:04.386Z,11.37
2023-03-18T06:30:34.709Z,11.50
2023-03-18T06:33:03.551Z,11.87
2023-03-18T06:35:32.534Z,11.51
2023-03-18T06:38:02.970Z,11.24
2023-03-18T06:40:32.495Z,11.79
2023-03-18T06:43:01.959Z,11.94
2023-03-18T06:45:31.552Z,15.43
2023-03-18T06:48:01.134Z,14.73
2023-03-18T06:50:32.209Z,14.36
2023-03-18T06:53:00.943Z,14.79
2023-03-18T06:55:29.633Z,16.86
2023-03-18T06:58:00.349Z,15.15
2023-03-18T07:00:29.469Z,16.28
2023-03-18T07:02:59.819Z,14.13
2023-03-18T07:05:29.445Z,15.75
2023-03-18T07:07:58.616Z,15.43
2023-03-18T07:10:30.687Z,15.51
2023-03-18T07:13:00.340Z,16.28
2023-03-18T07:15:29.042Z,16.94
2023-03-18T07:18:00.580Z,17.01
2023-03-18T07:20:30.210Z,16.38
2023-03-18T07:22:59.426Z,14.83
2023-03-18T07:25:30.279Z,8.53
2023-03-18T07:28:00.537Z,7.70
2023-03-18T07:30:30.597Z,7.28
2023-03-18T07:33:00.520Z,7.26
2023-03-18T07:35:29.360Z,7.81
2023-03-18T07:37:58.935Z,7.18
2023-03-18T07:40:28.382Z,7.91
2023-03-18T07:42:57.065Z,7.50
2023-03-18T07:45:25.824Z,7.91
2023-03-18T07:47:55.542Z,7.73
2023-03-18T07:50:25.232Z,8.04
2023-03-18T07:52:54.124Z,8.35
2023-03-18T07:55:22.816Z,7.96
2023-03-18T07:57:51.811Z,8.38
2023-03-18T08:00:22.395Z,9.00
2023-03-18T08:02:51.165Z,8.79
2023-03-18T08:05:20.404Z,9.02
2023-03-18T08:07:49.258Z,8.96
2023-03-18T08:10:18.133Z,8.54
2023-03-18T08:12:53.158Z,9.00
2023-03-18T08:15:23.903Z,8.33
2023-03-18T08:17:53.981Z,8.99
2023-03-18T08:20:23.312Z,9.06
2023-03-18T08:22:52.978Z,8.68
2023-03-18T08:25:23.699Z,9.25
2023-03-18T08:27:53.675Z,9.96
2023-03-18T08:30:25.455Z,9.88
2023-03-18T08:32:55.711Z,9.58
2023-03-18T08:35:25.937Z,9.06
2023-03-18T08:37:56.389Z,9.38
2023-03-18T08:40:26.198Z,9.61
2023-03-18T08:42:56.049Z,10.01
2023-03-18T08:45:27.387Z,9.81
2023-03-18T08:47:57.109Z,10.00
2023-03-18T08:50:29.812Z,10.40
2023-03-18T08:53:00.746Z,9.65
2023-03-18T08:55:39.913Z,10.35
2023-03-18T08:58:09.470Z,10.33
2023-03-18T09:00:43.074Z,10.66
2023-03-18T09:03:13.799Z,9.93
2023-03-18T09:05:43.917Z,10.60
2023-03-18T09:08:13.656Z,10.89
2023-03-18T09:10:42.624Z,10.84
2023-03-18T09:13:11.266Z,9.89
2023-03-18T09:15:42.296Z,9.98
2023-03-18T09:18:12.629Z,10.24
2023-03-18T09:20:42.634Z,10.97
2023-03-18T09:23:12.699Z,10.54
2023-03-18T09:25:45.147Z,9.84
2023-03-18T09:28:15.377Z,10.69
2023-03-18T09:30:44.743Z,11.10
2023-03-18T09:33:14.281Z,11.41
2023-03-18T09:35:43.411Z,11.45
2023-03-18T09:38:19.987Z,11.44
2023-03-18T09:41:16.824Z,11.30
2023-03-18T09:44:14.966Z,11.02
2023-03-18T09:47:37.101Z,11.22
2023-03-18T09:50:50.369Z,10.94
2023-03-18T09:53:42.965Z,11.47
2023-03-18T09:56:25.180Z,11.48
2023-03-18T09:59:17.441Z,10.55
2023-03-18T10:01:54.486Z,11.42
2023-03-18T10:04:44.633Z,11.51
2023-03-18T10:07:19.078Z,11.48
2023-03-18T10:09:57.203Z,11.62
2023-03-18T10:12:46.449Z,12.49
2023-03-18T10:15:41.564Z,12.14
2023-03-18T10:18:34.612Z,11.74
2023-03-18T10:21:31.977Z,11.75
2023-03-18T10:24:27.511Z,12.36
2023-03-18T10:27:51.867Z,12.14
2023-03-18T10:30:55.063Z,12.43
2023-03-18T10:33:56.771Z,11.94
2023-03-18T10:36:40.203Z,12.71
2023-03-18T10:39:22.691Z,12.67
2023-03-18T10:41:56.267Z,12.77
2023-03-18T10:44:37.747Z,12.99
2023-03-18T10:47:21.206Z,13.04
2023-03-18T10:50:47.954Z,13.24
2023-03-18T10:53:27.367Z,12.87
2023-03-18T10:56:05.501Z,13.22
2023-03-18T10:58:36.982Z,13.44
2023-03-18T11:01:10.538Z,13.38
2023-03-18T11:03:59.250Z,13.33
2023-03-18T11:06:55.882Z,13.34
2023-03-18T11:09:33.211Z,13.41
2023-03-18T11:12:13.353Z,13.60
2023-03-18T11:14:43.050Z,13.54
2023-03-18T11:17:35.915Z,13.91
2023-03-18T11:20:24.701Z,13.28
2023-03-18T11:22:57.728Z,13.26
2023-03-18T11:25:29.342Z,14.02
2023-03-18T11:28:05.983Z,13.65
2023-03-18T11:30:53.303Z,13.19
2023-03-18T11:33:27.723Z,13.71
2023-03-18T11:36:05.348Z,13.41
2023-03-18T11:38:38.014Z,13.50
2023-03-18T11:41:17.707Z,13.75
2023-03-18T11:44:06.262Z,13.33
2023-03-18T11:46:58.754Z,13.58
2023-03-18T11:49:29.583Z,13.50
2023-03-18T11:52:42.515Z,13.31
2023-03-18T11:55:27.981Z,13.43
2023-03-18T11:58:33.481Z,13.43
2023-03-18T12:01:19.999Z,13.71
2023-03-18T12:04:04.320Z,13.79
2023-03-18T12:07:10.659Z,14.16
2023-03-18T12:10:15.269Z,13.90
2023-03-18T12:13:09.929Z,14.10
2023-03-18T12:16:29.567Z,13.65
2023-03-18T12:19:22.239Z,13.44
2023-03-18T12:22:26.068Z,14.07
2023-03-18T12:25:18.545Z,14.06
2023-03-18T12:28:24.871Z,14.14
2023-03-18T12:31:28.081Z,14.12
2023-03-18T12:34:03.902Z,13.96
2023-03-18T12:36:54.353Z,13.87
2023-03-18T12:39:58.609Z,14.12
2023-03-18T12:42:55.562Z,14.31
2023-03-18T12:45:33.387Z,13.99
2023-03-18T12:48:36.801Z,14.02
2023-03-18T12:51:19.144Z,13.84
2023-03-18T12:53:57.007Z,14.37
2023-03-18T12:56:32.869Z,14.14
2023-03-18T12:59:30.560Z,14.33
2023-03-18T13:02:23.841Z,14.52
2023-03-18T13:05:02.297Z,14.55
2023-03-18T13:08:27.453Z,14.44
2023-03-18T13:12:03.968Z,14.63
2023-03-18T13:15:22.727Z,14.73
2023-03-18T13:18:00.584Z,14.02
2023-03-18T13:20:37.919Z,14.28
2023-03-18T13:24:16.170Z,14.67
2023-03-18T13:27:32.492Z,14.90
2023-03-18T13:31:04.729Z,14.42
2023-03-18T13:34:10.156Z,14.43
2023-03-18T13:37:04.997Z,14.56
2023-03-18T13:40:48.404Z,15.04
2023-03-18T13:43:22.330Z,14.31
2023-03-18T13:45:55.429Z,14.67
2023-03-18T13:48:35.550Z,14.50
2023-03-18T13:51:40.050Z,14.92
2023-03-18T13:54:19.361Z,14.57
2023-03-18T13:56:56.039Z,14.45
2023-03-18T13:59:36.657Z,14.44
2023-03-18T14:02:47.907Z,14.36
2023-03-18T14:05:35.385Z,14.56
2023-03-18T14:08:33.555Z,14.51
2023-03-18T14:11:23.009Z,14.14
2023-03-18T14:14:06.147Z,14.41
2023-03-18T14:16:46.566Z,14.65
2023-03-18T14:19:32.553Z,14.74
2023-03-18T14:22:30.785Z,14.23
2023-03-18T14:25:18.092Z,14.30
2023-03-18T14:27:58.419Z,14.04
2023-03-18T14:30:32.286Z,13.70
2023-03-18T14:33:25.005Z,14.07
2023-03-18T14:36:00.141Z,14.27
2023-03-18T14:38:32.961Z,14.30
2023-03-18T14:41:02.369Z,14.01
2023-03-18T14:43:46.931Z,14.05
2023-03-18T14:46:22.606Z,14.43
2023-03-18T14:48:54.539Z,14.24
2023-03-18T14:51:26.996Z,13.85
2023-03-18T14:54:06.375Z,14.30
2023-03-18T14:56:42.282Z,14.52
2023-03-18T14:59:17.522Z,14.37
2023-03-18T15:01:54.162Z,14.42
2023-03-18T15:04:27.103Z,14.21
2023-03-18T15:07:00.384Z,14.53
2023-03-18T15:09:32.615Z,14.37
2023-03-18T15:12:18.256Z,14.09
2023-03-18T15:14:46.556Z,14.00
2023-03-18T15:17:17.864Z,14.04
2023-03-18T15:19:46.579Z,13.79
2023-03-18T15:22:28.669Z,13.92
2023-03-18T15:25:08.391Z,13.68
2023-03-18T15:27:38.247Z,13.59
2023-03-18T15:30:25.296Z,13.35
2023-03-18T15:33:06.052Z,13.17
2023-03-18T15:35:34.314Z,13.25
2023-03-18T15:38:17.463Z,12.98
2023-03-18T15:40:55.557Z,12.89
2023-03-18T15:43:42.742Z,12.71
2023-03-18T15:46:24.986Z,12.81
2023-03-18T15:49:03.136Z,12.79
2023-03-18T15:51:48.113Z,12.67
2023-03-18T15:54:40.680Z,12.56
2023-03-18T15:57:41.841Z,12.47
2023-03-18T16:00:13.641Z,12.29
2023-03-18T16:02:42.328Z,12.24
2023-03-18T16:05:25.634Z,12.13
2023-03-18T16:07:55.395Z,12.07
2023-03-18T16:10:26.571Z,12.08
2023-03-18T16:13:01.507Z,11.97
2023-03-18T16:15:30.162Z,11.80
2023-03-18T16:17:58.842Z,11.75
2023-03-18T16:20:30.335Z,11.70
2023-03-18T16:22:59.928Z,11.51
2023-03-18T16:25:29.284Z,11.54
2023-03-18T16:28:01.460Z,11.45
2023-03-18T16:30:33.732Z,11.40
2023-03-18T16:33:01.472Z,11.15
2023-03-18T16:35:34.845Z,11.18
2023-03-18T16:38:03.112Z,10.95
2023-03-18T16:40:32.669Z,10.81
2023-03-18T16:43:01.762Z,10.68
2023-03-18T16:45:34.642Z,10.67
2023-03-18T16:48:07.166Z,10.66
2023-03-18T16:50:42.845Z,10.59
2023-03-18T16:53:29.794Z,10.49
2023-03-18T16:56:10.435Z,10.48
2023-03-18T16:58:39.135Z,10.30
2023-03-18T17:01:08.727Z,10.16
2023-03-18T17:03:38.183Z,10.15
2023-03-18T17:06:08.954Z,9.96
2023-03-18T17:08:38.510Z,10.01
2023-03-18T17:11:08.102Z,10.03
2023-03-18T17:13:38.699Z,9.97
2023-03-18T17:16:19.533Z,9.82
2023-03-18T17:18:49.660Z,9.73
2023-03-18T17:21:18.412Z,9.59
2023-03-18T17:23:47.831Z,9.72
2023-03-18T17:26:17.509Z,9.51
2023-03-18T17:28:50.062Z,9.44
2023-03-18T17:31:20.766Z,9.32
2023-03-18T17:33:50.594Z,9.38
2023-03-18T17:36:20.745Z,9.21
2023-03-18T17:38:51.884Z,9.19
2023-03-18T17:41:21.938Z,9.06
2023-03-18T17:43:52.143Z,9.06
2023-03-18T17:46:21.841Z,9.02
2023-03-18T17:48:51.893Z,8.93
2023-03-18T17:51:24.734Z,8.93
2023-03-18T17:53:59.363Z,8.98
2023-03-18T17:56:29.070Z,8.82
2023-03-18T17:58:58.958Z,8.70
2023-03-18T18:01:30.343Z,8.78
2023-03-18T18:04:01.812Z,8.67
2023-03-18T18:06:32.217Z,8.59
2023-03-18T18:09:02.461Z,8.54
2023-03-18T18:11:38.100Z,8.52
2023-03-18T18:14:26.266Z,8.44
2023-03-18T18:16:56.994Z,8.29
2023-03-18T18:19:25.430Z,8.35
2023-03-18T18:21:55.337Z,8.27
2023-03-18T18:24:29.897Z,8.16
2023-03-18T18:26:58.460Z,8.28
2023-03-18T18:29:29.780Z,8.21
2023-03-18T18:31:58.036Z,8.23
2023-03-18T18:34:28.461Z,8.08
2023-03-18T18:36:58.900Z,8.01
2023-03-18T18:39:28.708Z,7.96
2023-03-18T18:41:58.187Z,7.94
2023-03-18T18:44:28.586Z,7.82
2023-03-18T18:46:58.246Z,7.75
2023-03-18T18:49:26.092Z,7.62
2023-03-18T18:51:56.970Z,7.55
2023-03-18T18:54:26.624Z,7.34
2023-03-18T18:56:57.579Z,7.38
2023-03-18T18:59:35.072Z,7.28
2023-03-18T19:02:37.572Z,7.31
2023-03-18T19:05:08.270Z,7.09
2023-03-18T19:07:39.893Z,6.91
2023-03-18T19:10:16.697Z,6.93
2023-03-18T19:12:46.477Z,6.87
2023-03-18T19:15:16.299Z,6.85
2023-03-18T19:17:48.027Z,6.81
2023-03-18T19:20:30.854Z,6.79
2023-03-18T19:23:00.742Z,6.84
2023-03-18T19:25:31.242Z,6.59
2023-03-18T19:28:00.478Z,6.39
2023-03-18T19:30:29.966Z,6.65
2023-03-18T19:33:00.041Z,6.62
2023-03-18T19:35:28.875Z,6.35
2023-03-18T19:37:59.362Z,6.49
2023-03-18T19:40:32.147Z,6.46
2023-03-18T19:43:01.940Z,6.34
2023-03-18T19:45:31.817Z,6.31
2023-03-18T19:48:01.626Z,6.21
2023-03-18T19:50:31.801Z,6.18
2023-03-18T19:53:01.682Z,6.04
2023-03-18T19:55:31.454Z,6.23
2023-03-18T19:58:01.140Z,6.35
2023-03-18T20:00:29.923Z,6.41
2023-03-18T20:03:00.023Z,6.48
2023-03-18T20:05:29.767Z,6.35
2023-03-18T20:07:59.424Z,6.34
2023-03-18T20:10:27.361Z,6.40
2023-03-18T20:12:57.820Z,6.44
2023-03-18T20:15:29.471Z,6.44
2023-03-18T20:18:00.740Z,6.33
2023-03-18T20:20:34.550Z,6.27
2023-03-18T20:23:08.295Z,6.30
2023-03-18T20:25:44.062Z,6.21
2023-03-18T20:28:24.535Z,6.14
2023-03-18T20:30:56.509Z,6.15
2023-03-18T20:33:26.134Z,6.00
2023-03-18T20:35:56.277Z,6.02
2023-03-18T20:38:39.666Z,6.02
2023-03-18T20:41:17.902Z,5.91
2023-03-18T20:43:50.234Z,5.94
2023-03-18T20:46:19.996Z,6.01
2023-03-18T20:48:50.012Z,5.94
2023-03-18T20:51:27.873Z,5.94
2023-03-18T20:53:58.074Z,5.84
2023-03-18T20:56:27.703Z,5.70
2023-03-18T20:58:57.172Z,5.66
2023-03-18T21:01:25.929Z,5.55
2023-03-18T21:03:55.027Z,5.65
2023-03-18T21:06:23.766Z,5.66
2023-03-18T21:08:53.237Z,5.63
2023-03-18T21:11:30.579Z,5.52
2023-03-18T21:14:00.900Z,5.48
2023-03-18T21:16:29.762Z,5.52
2023-03-18T21:18:59.575Z,5.24
2023-03-18T21:21:38.380Z,5.23
2023-03-18T21:24:26.774Z,5.05
2023-03-18T21:27:04.249Z,5.12
2023-03-18T21:29:34.339Z,4.97
2023-03-18T21:32:03.211Z,5.07
2023-03-18T21:34:32.679Z,5.04
2023-03-18T21:37:02.280Z,5.06
2023-03-18T21:39:32.522Z,4.99
2023-03-18T21:42:02.011Z,4.80
2023-03-18T21:44:31.514Z,4.66
2023-03-18T21:47:01.339Z,4.72
2023-03-18T21:49:30.820Z,4.73
2023-03-18T21:52:00.317Z,4.69
2023-03-18T21:54:30.050Z,4.49
2023-03-18T21:56:59.536Z,4.54
2023-03-18T21:59:29.043Z,4.45
2023-03-18T22:01:58.514Z,4.32
2023-03-18T22:04:27.994Z,4.42
2023-03-18T22:06:57.675Z,4.49
2023-03-18T22:09:28.385Z,4.33
2023-03-18T22:11:58.443Z,4.15
2023-03-18T22:14:28.130Z,4.13
2023-03-18T22:16:57.753Z,4.17
2023-03-18T22:19:27.532Z,4.05
2023-03-18T22:21:57.184Z,3.80
2023-03-18T22:24:26.894Z,3.69
2023-03-18T22:26:57.304Z,3.73
2023-03-18T22:29:26.963Z,3.66
2023-03-18T22:31:56.578Z,3.56
2023-03-18T22:34:27.293Z,3.39
2023-03-18T22:36:56.866Z,3.37
2023-03-18T22:39:26.669Z,3.05
2023-03-18T22:41:56.285Z,2.95
2023-03-18T22:44:26.182Z,2.78
2023-03-18T22:46:55.889Z,2.89
2023-03-18T22:49:25.504Z,2.80
2023-03-18T22:51:55.095Z,2.96
2023-03-18T22:54:26.411Z,2.82
2023-03-18T22:56:58.366Z,2.99
2023-03-18T22:59:28.299Z,2.88
2023-03-18T23:01:58.489Z,2.85
2023-03-18T23:04:30.268Z,3.00
2023-03-18T23:06:59.798Z,2.96
2023-03-18T23:09:29.339Z,2.86
2023-03-18T23:11:58.928Z,2.49
2023-03-18T23:14:28.635Z,2.69
2023-03-18T23:16:58.161Z,2.75
2023-03-18T23:19:26.933Z,2.85
2023-03-18T23:21:55.822Z,2.78
2023-03-18T23:24:24.594Z,2.97
2023-03-18T23:26:54.125Z,2.75
2023-03-18T23:29:23.705Z,2.76
2023-03-18T23:31:53.332Z,3.04
2023-03-18T23:34:22.049Z,2.99
2023-03-18T23:36:52.107Z,2.62
2023-03-18T23:39:21.610Z,2.55
2023-03-18T23:41:50.505Z,2.64
2023-03-18T23:44:19.494Z,2.71
2023-03-18T23:46:49.146Z,2.62
2023-03-18T23:49:18.328Z,2.58
2023-03-18T23:51:47.095Z,2.81
2023-03-18T23:54:15.028Z,2.74
2023-03-18T23:56:42.896Z,2.64
2023-03-18T23:59:11.700Z,2.37
